Time;durP1;ratioP1;P1;durP2;ratioP2;P2;SDS_P1;SDS_P2;PMS_P1;PMS_P2;Temp;Humidity;BMP_temperature;BMP_pressure;BME280_temperature;BME280_humidity;BME280_pressure;Samples;Min_cycle;Max_cycle;Signal;HPM_P1;HPM_P2
2023/04/19 00:01:58;;;;;;;12.02;7.45;;;12.40;92.00;;;;;;5012386;28;20025;-79
2023/04/19 00:04:24;;;;;;;12.82;8.75;;;12.40;92.10;;;;;;5029764;28;20040;-80
2023/04/19 00:06:50;;;;;;;13.48;7.35;;;12.40;92.00;;;;;;5012178;28;20068;-79
2023/04/19 00:09:18;;;;;;;11.02;8.40;;;12.50;92.20;;;;;;5030357;28;20735;-80
2023/04/19 00:11:44;;;;;;;10.65;7.70;;;12.40;91.90;;;;;;5030778;28;20036;-80
2023/04/19 00:14:10;;;;;;;10.98;6.70;;;12.40;92.30;;;;;;5030224;28;20017;-79
2023/04/19 00:16:36;;;;;;;11.10;6.25;;;12.40;92.40;;;;;;5011989;28;20033;-78
2023/04/19 00:19:02;;;;;;;11.32;7.78;;;12.40;92.30;;;;;;5029293;28;20034;-79
2023/04/19 00:21:28;;;;;;;15.30;9.52;;;12.40;92.60;;;;;;5030501;28;20487;-80
2023/04/19 00:23:54;;;;;;;9.02;6.65;;;12.50;92.50;;;;;;5030765;28;20033;-78
2023/04/19 00:26:21;;;;;;;10.90;6.55;;;12.50;92.60;;;;;;5033113;28;20818;-80
2023/04/19 00:28:46;;;;;;;10.90;6.90;;;12.40;92.60;;;;;;5039497;28;20083;-79
2023/04/19 00:31:12;;;;;;;13.38;5.55;;;12.40;92.90;;;;;;5034022;28;20503;-79
2023/04/19 00:33:37;;;;;;;12.52;7.45;;;12.40;93.30;;;;;;5030308;28;20045;-78
2023/04/19 00:36:03;;;;;;;10.57;6.60;;;12.30;93.00;;;;;;5029127;28;20025;-77
2023/04/19 00:38:29;;;;;;;12.48;7.50;;;12.30;93.00;;;;;;5029561;28;20037;-78
2023/04/19 00:40:54;;;;;;;14.38;9.23;;;12.30;93.20;;;;;;5028777;28;20021;-80
2023/04/19 00:43:21;;;;;;;10.88;7.55;;;12.30;93.60;;;;;;5028847;28;20033;-78
2023/04/19 00:45:48;;;;;;;10.60;6.65;;;12.20;93.40;;;;;;5028723;28;20055;-78
2023/04/19 00:48:14;;;;;;;9.80;6.80;;;12.20;93.50;;;;;;5029402;28;20026;-78
2023/04/19 00:50:43;;;;;;;11.75;8.20;;;12.20;93.50;;;;;;5028478;28;20559;-78
2023/04/19 00:53:09;;;;;;;13.48;9.85;;;12.20;93.30;;;;;;5028939;28;20029;-78
2023/04/19 00:55:37;;;;;;;5.93;3.25;;;12.20;93.20;;;;;;5018175;28;20025;-78
2023/04/19 00:58:07;;;;;;;7.10;4.35;;;12.20;94.20;;;;;;5010187;28;20048;-76
2023/04/19 01:00:34;;;;;;;6.18;3.00;;;12.20;94.30;;;;;;5028285;28;20028;-76
2023/04/19 01:03:00;;;;;;;11.88;6.57;;;12.20;94.60;;;;;;5027139;28;20068;-79
2023/04/19 01:05:26;;;;;;;12.90;8.93;;;12.20;94.20;;;;;;5026936;28;20495;-78
2023/04/19 01:07:52;;;;;;;10.82;7.10;;;12.10;93.60;;;;;;5029528;28;20021;-77
2023/04/19 01:10:17;;;;;;;13.90;7.90;;;12.10;93.70;;;;;;5029773;28;20420;-78
2023/04/19 01:12:49;;;;;;;12.27;7.47;;;12.10;93.30;;;;;;5028895;28;20096;-77
2023/04/19 01:15:15;;;;;;;11.85;8.75;;;12.00;93.60;;;;;;5027984;28;20033;-78
2023/04/19 01:17:41;;;;;;;11.15;7.85;;;12.00;93.50;;;;;;5009006;28;20150;-78
2023/04/19 01:20:07;;;;;;;14.23;8.85;;;12.00;93.90;;;;;;5029218;28;20029;-79
2023/04/19 01:22:36;;;;;;;11.52;8.00;;;12.00;93.90;;;;;;5029402;28;20033;-79
2023/04/19 01:25:03;;;;;;;13.63;7.75;;;12.00;93.80;;;;;;5028958;28;20032;-78
2023/04/19 01:27:29;;;;;;;10.85;7.03;;;11.90;93.90;;;;;;5028000;28;20029;-79
2023/04/19 01:29:55;;;;;;;14.00;9.65;;;11.90;94.10;;;;;;5028595;28;20024;-79
2023/04/19 01:32:20;;;;;;;11.35;7.65;;;11.90;94.00;;;;;;5027144;28;20030;-79
2023/04/19 01:34:48;;;;;;;14.75;9.55;;;11.90;94.30;;;;;;5028255;28;20025;-79
2023/04/19 01:37:13;;;;;;;10.32;7.47;;;11.80;94.00;;;;;;5028104;28;20014;-79
2023/04/19 01:39:40;;;;;;;14.98;11.30;;;11.80;94.00;;;;;;5028266;28;20021;-79
2023/04/19 01:42:06;;;;;;;13.80;7.00;;;11.80;94.10;;;;;;5027315;28;20484;-78
2023/04/19 01:44:31;;;;;;;11.15;7.40;;;11.80;94.20;;;;;;5028744;28;20036;-78
2023/04/19 01:46:57;;;;;;;12.60;8.20;;;11.80;94.70;;;;;;5028262;28;20480;-78
2023/04/19 01:49:22;;;;;;;12.20;7.80;;;11.70;94.90;;;;;;5027964;28;20025;-79
2023/04/19 01:51:48;;;;;;;14.35;10.23;;;11.60;94.50;;;;;;5027747;28;20018;-78
2023/04/19 01:54:14;;;;;;;13.05;8.63;;;11.60;94.20;;;;;;5028118;28;20013;-79
2023/04/19 01:56:39;;;;;;;14.45;9.50;;;11.50;94.40;;;;;;5027884;28;20120;-79
2023/04/19 01:59:05;;;;;;;14.35;8.55;;;11.50;94.70;;;;;;5027765;28;20033;-78
2023/04/19 02:01:30;;;;;;;11.68;8.38;;;11.50;95.00;;;;;;5007961;28;20025;-79
2023/04/19 02:03:56;;;;;;;17.27;10.45;;;11.50;94.60;;;;;;5026715;28;20076;-79
2023/04/19 02:06:22;;;;;;;13.90;10.55;;;11.60;94.70;;;;;;5027866;28;20028;-78
2023/04/19 02:08:47;;;;;;;9.70;6.18;;;11.60;94.50;;;;;;5028732;28;20022;-78
2023/04/19 02:11:13;;;;;;;11.50;7.95;;;11.50;94.60;;;;;;5011305;28;20041;-78
2023/04/19 02:13:39;;;;;;;14.77;10.13;;;11.50;94.70;;;;;;5031218;28;20025;-79
2023/04/19 02:16:05;;;;;;;16.13;8.07;;;11.50;94.70;;;;;;5032610;28;20502;-79
2023/04/19 02:18:31;;;;;;;11.25;8.65;;;11.50;94.70;;;;;;5031786;28;20033;-79
2023/04/19 02:20:58;;;;;;;13.05;9.82;;;11.40;94.60;;;;;;5013822;28;20032;-79
2023/04/19 02:23:24;;;;;;;12.05;8.45;;;11.40;94.40;;;;;;5021638;28;20018;-78
2023/04/19 02:25:50;;;;;;;14.27;9.68;;;11.40;94.30;;;;;;5012744;28;20025;-79
2023/04/19 02:28:16;;;;;;;7.78;5.32;;;11.40;94.20;;;;;;5013357;28;20029;-78
2023/04/19 02:30:41;;;;;;;15.52;9.35;;;11.40;94.70;;;;;;5031697;28;20025;-78
2023/04/19 02:33:07;;;;;;;12.15;8.45;;;11.40;94.60;;;;;;5031718;28;20040;-78
2023/04/19 02:35:33;;;;;;;13.55;8.75;;;11.40;94.50;;;;;;5030976;28;20035;-79
2023/04/19 02:38:03;;;;;;;10.88;7.97;;;11.40;94.60;;;;;;5031889;28;20476;-78
2023/04/19 02:40:29;;;;;;;14.55;9.50;;;11.40;94.80;;;;;;5033057;28;20033;-78
2023/04/19 02:42:57;;;;;;;8.60;5.75;;;11.30;94.70;;;;;;5038811;28;20021;-78
2023/04/19 02:45:29;;;;;;;10.75;6.65;;;11.40;94.90;;;;;;5035091;28;20029;-78
2023/04/19 02:47:55;;;;;;;11.63;8.10;;;11.40;94.90;;;;;;5031188;28;20504;-78
2023/04/19 02:50:20;;;;;;;11.85;7.00;;;11.40;94.70;;;;;;5021979;28;20080;-77
2023/04/19 02:52:46;;;;;;;9.95;7.40;;;11.50;94.70;;;;;;5030578;28;20029;-77
2023/04/19 02:55:12;;;;;;;13.23;8.05;;;11.50;94.60;;;;;;5030962;28;20032;-78
2023/04/19 02:57:37;;;;;;;11.70;7.45;;;11.50;94.40;;;;;;5030416;28;20488;-79
2023/04/19 03:00:04;;;;;;;12.38;7.88;;;11.50;94.20;;;;;;5013139;28;20072;-78
2023/04/19 03:02:30;;;;;;;10.43;6.10;;;11.50;94.40;;;;;;5030569;28;20508;-77
2023/04/19 03:04:55;;;;;;;9.77;6.13;;;11.50;94.60;;;;;;5030815;28;20026;-77
2023/04/19 03:07:22;;;;;;;10.07;6.88;;;11.50;94.60;;;;;;5028227;28;20399;-78
2023/04/19 03:09:47;;;;;;;9.93;5.68;;;11.60;94.40;;;;;;5026827;28;20025;-78
2023/04/19 03:12:13;;;;;;;13.18;8.68;;;11.60;94.80;;;;;;5029142;28;20031;-78
2023/04/19 03:14:39;;;;;;;11.38;6.15;;;11.60;94.60;;;;;;5029690;28;20080;-79
2023/04/19 03:17:05;;;;;;;10.68;7.03;;;11.60;94.70;;;;;;5029868;28;20029;-79
2023/04/19 03:19:30;;;;;;;11.23;7.25;;;11.60;94.60;;;;;;5029734;28;20077;-77
2023/04/19 03:21:56;;;;;;;8.98;5.53;;;11.60;94.60;;;;;;5025967;28;20025;-78
2023/04/19 03:24:29;;;;;;;11.48;6.60;;;11.70;94.80;;;;;;5010301;28;20104;-77
2023/04/19 03:26:56;;;;;;;11.45;6.35;;;11.70;95.20;;;;;;5030316;28;20021;-77
2023/04/19 03:29:21;;;;;;;11.18;6.82;;;11.70;95.00;;;;;;5030620;28;20037;-79
2023/04/19 03:31:47;;;;;;;11.35;7.05;;;11.70;94.60;;;;;;5029706;28;20026;-78
2023/04/19 03:34:13;;;;;;;9.48;4.22;;;11.70;94.40;;;;;;5030073;28;20024;-77
2023/04/19 03:36:39;;;;;;;9.32;4.28;;;11.70;95.30;;;;;;5030140;28;20491;-78
2023/04/19 03:39:06;;;;;;;10.27;7.20;;;11.70;95.20;;;;;;5029857;28;20072;-77
2023/04/19 03:41:32;;;;;;;7.75;4.07;;;11.70;94.90;;;;;;5027542;28;21751;-78
2023/04/19 03:44:01;;;;;;;7.13;4.32;;;11.70;95.40;;;;;;5030822;28;20032;-79
2023/04/19 03:46:30;;;;;;;8.32;5.07;;;11.70;95.20;;;;;;5012383;28;20032;-78
2023/04/19 03:48:56;;;;;;;9.30;6.43;;;11.70;94.80;;;;;;5013153;28;20036;-79
2023/04/19 03:51:22;;;;;;;9.25;5.50;;;11.70;94.50;;;;;;5029286;28;20033;-80
2023/04/19 03:53:47;;;;;;;10.57;4.97;;;11.70;95.20;;;;;;5012884;28;20014;-77
2023/04/19 03:56:13;;;;;;;8.55;4.43;;;11.70;95.30;;;;;;5013418;28;20498;-78
2023/04/19 03:58:39;;;;;;;11.10;5.97;;;11.70;95.70;;;;;;5008653;28;20068;-78
2023/04/19 04:01:07;;;;;;;9.27;5.47;;;11.70;95.30;;;;;;5030209;28;20021;-79
2023/04/19 04:03:33;;;;;;;8.48;5.30;;;11.60;95.40;;;;;;5011859;28;20080;-79
2023/04/19 04:05:59;;;;;;;10.65;7.72;;;11.60;95.20;;;;;;5012165;28;20069;-79
2023/04/19 04:08:24;;;;;;;12.00;7.45;;;11.60;94.50;;;;;;5030459;28;20017;-78
2023/04/19 04:10:51;;;;;;;7.88;5.35;;;11.60;94.70;;;;;;5030208;28;20049;-79
2023/04/19 04:13:17;;;;;;;7.32;4.10;;;11.50;94.70;;;;;;5027869;28;20136;-80
2023/04/19 04:15:43;;;;;;;10.55;6.05;;;11.50;95.50;;;;;;5028626;28;20017;-79
2023/04/19 04:18:08;;;;;;;10.82;6.13;;;11.50;95.40;;;;;;5029320;28;20033;-79
2023/04/19 04:20:35;;;;;;;9.82;6.50;;;11.40;95.20;;;;;;5028453;28;20086;-78
2023/04/19 04:23:01;;;;;;;8.48;5.55;;;11.40;95.00;;;;;;5026746;28;20397;-78
2023/04/19 04:25:27;;;;;;;7.97;4.53;;;11.40;94.90;;;;;;5029222;28;20026;-79
2023/04/19 04:27:53;;;;;;;9.30;5.78;;;11.30;95.70;;;;;;5011586;28;20057;-78
2023/04/19 04:30:19;;;;;;;12.18;6.82;;;11.30;95.60;;;;;;5029285;28;20084;-79
2023/04/19 04:32:45;;;;;;;6.45;4.00;;;11.30;95.70;;;;;;5028745;28;20034;-79
2023/04/19 04:35:11;;;;;;;8.75;5.43;;;11.20;95.80;;;;;;5028986;28;20558;-78
2023/04/19 04:37:37;;;;;;;7.25;4.57;;;11.20;95.10;;;;;;5011197;28;20034;-79
2023/04/19 04:40:06;;;;;;;8.10;2.55;;;11.20;95.50;;;;;;5029708;28;20075;-78
2023/04/19 04:42:32;;;;;;;7.18;3.85;;;11.30;96.70;;;;;;5029811;28;20095;-78
2023/04/19 04:45:00;;;;;;;8.00;3.45;;;11.20;96.30;;;;;;5029940;28;20025;-79
2023/04/19 04:47:35;;;;;;;8.30;5.03;;;11.20;96.30;;;;;;5027686;28;20438;-78
2023/04/19 04:50:02;;;;;;;9.13;4.55;;;11.20;96.10;;;;;;5023548;28;20100;-79
2023/04/19 04:52:28;;;;;;;7.30;4.10;;;11.10;96.50;;;;;;5028911;28;20480;-80
2023/04/19 04:54:53;;;;;;;6.75;3.60;;;11.10;96.40;;;;;;5031997;28;20028;-79
2023/04/19 04:57:21;;;;;;;9.07;3.83;;;11.00;96.30;;;;;;5039397;28;20025;-77
2023/04/19 04:59:47;;;;;;;9.15;5.10;;;11.00;96.90;;;;;;5028565;28;20167;-78
2023/04/19 05:02:13;;;;;;;7.82;4.90;;;10.90;96.10;;;;;;5028648;28;20128;-79
2023/04/19 05:04:39;;;;;;;7.88;5.20;;;10.90;96.80;;;;;;5028688;28;20033;-78
2023/04/19 05:07:05;;;;;;;8.23;5.43;;;10.90;96.40;;;;;;5027834;28;20025;-77
2023/04/19 05:09:31;;;;;;;9.73;5.75;;;10.80;97.00;;;;;;5028805;28;20021;-78
2023/04/19 05:12:00;;;;;;;10.43;5.65;;;10.80;97.10;;;;;;5028641;28;20507;-77
2023/04/19 05:14:26;;;;;;;13.05;5.95;;;10.80;96.60;;;;;;5028774;28;20682;-76
2023/04/19 05:16:51;;;;;;;11.15;7.43;;;10.80;97.50;;;;;;5009179;28;20086;-78
2023/04/19 05:19:17;;;;;;;8.27;5.57;;;10.80;96.90;;;;;;5027749;28;20823;-79
2023/04/19 05:21:43;;;;;;;7.57;4.03;;;10.80;97.40;;;;;;5028450;28;20483;-77
2023/04/19 05:24:09;;;;;;;7.78;4.70;;;10.80;97.30;;;;;;5028263;28;20503;-77
2023/04/19 05:26:34;;;;;;;13.18;4.55;;;10.80;96.90;;;;;;5028557;28;20022;-77
2023/04/19 05:29:00;;;;;;;8.68;4.07;;;10.70;96.90;;;;;;5028287;28;20538;-78
2023/04/19 05:31:26;;;;;;;10.98;6.03;;;10.80;97.70;;;;;;5018323;28;20021;-77
2023/04/19 05:33:51;;;;;;;10.07;6.13;;;10.80;97.10;;;;;;5027557;28;20056;-78
2023/04/19 05:36:18;;;;;;;7.60;3.80;;;10.90;97.40;;;;;;5010400;28;20013;-77
2023/04/19 05:38:44;;;;;;;7.25;2.55;;;10.90;97.50;;;;;;5028275;28;20025;-78
2023/04/19 05:41:10;;;;;;;6.90;3.28;;;10.90;97.80;;;;;;5021527;28;20512;-78
2023/04/19 05:43:36;;;;;;;7.90;4.32;;;10.90;97.60;;;;;;5028006;28;20025;-77
2023/04/19 05:46:01;;;;;;;9.60;5.32;;;11.00;97.10;;;;;;5029871;28;20109;-78
2023/04/19 05:48:27;;;;;;;9.45;5.68;;;11.00;97.20;;;;;;5028582;28;20057;-77
2023/04/19 05:50:55;;;;;;;8.65;4.82;;;11.00;96.90;;;;;;5030525;28;20036;-78
2023/04/19 05:53:21;;;;;;;8.95;5.07;;;11.00;96.70;;;;;;5031933;28;20372;-79
2023/04/19 05:55:48;;;;;;;10.95;6.05;;;11.00;96.20;;;;;;5027332;28;20026;-79
2023/04/19 05:58:14;;;;;;;7.75;5.60;;;10.90;96.20;;;;;;5027730;28;20045;-79
2023/04/19 06:00:40;;;;;;;7.70;4.65;;;10.90;95.90;;;;;;5027395;28;20439;-78
2023/04/19 06:03:06;;;;;;;9.57;4.55;;;11.00;96.30;;;;;;5029610;28;20551;-77
2023/04/19 06:05:32;;;;;;;9.27;5.10;;;11.00;96.20;;;;;;5030758;28;20029;-81
2023/04/19 06:07:58;;;;;;;7.45;4.03;;;11.00;95.20;;;;;;5020263;28;20017;-81
2023/04/19 06:10:24;;;;;;;9.20;4.13;;;11.00;95.90;;;;;;5035555;28;20140;-78
2023/04/19 06:12:49;;;;;;;8.30;5.13;;;11.00;95.20;;;;;;5035337;28;20117;-80
2023/04/19 06:15:16;;;;;;;7.88;3.88;;;11.00;94.90;;;;;;5035187;28;20108;-77
2023/04/19 06:17:41;;;;;;;10.38;6.13;;;11.10;96.90;;;;;;5036580;28;20025;-78
2023/04/19 06:20:09;;;;;;;9.20;4.45;;;11.00;94.60;;;;;;5033993;28;20060;-79
2023/04/19 06:22:40;;;;;;;9.65;5.65;;;11.10;96.40;;;;;;5016302;28;20136;-77
2023/04/19 06:25:06;;;;;;;9.30;4.88;;;11.10;95.90;;;;;;5032954;28;20021;-78
2023/04/19 06:27:32;;;;;;;10.77;4.07;;;11.20;95.90;;;;;;5036524;28;20025;-77
2023/04/19 06:29:59;;;;;;;9.40;4.05;;;11.30;96.10;;;;;;5035571;28;20131;-76
2023/04/19 06:32:28;;;;;;;12.80;4.70;;;11.40;96.30;;;;;;5033790;28;20029;-75
2023/04/19 06:34:55;;;;;;;9.27;3.78;;;11.90;95.80;;;;;;5036289;28;20471;-76
2023/04/19 06:37:20;;;;;;;8.65;4.35;;;12.30;95.60;;;;;;5034258;28;20171;-76
2023/04/19 06:39:46;;;;;;;12.23;4.20;;;12.70;94.20;;;;;;5034329;28;20060;-77
2023/04/19 06:42:12;;;;;;;8.95;3.30;;;13.00;93.20;;;;;;5034162;28;20021;-77
2023/04/19 06:44:37;;;;;;;7.05;3.25;;;13.20;92.70;;;;;;5040766;28;20498;-77
2023/04/19 06:47:03;;;;;;;6.97;3.35;;;13.40;91.40;;;;;;5030200;28;20021;-76
2023/04/19 06:49:29;;;;;;;7.53;4.03;;;13.40;91.20;;;;;;5035813;28;20031;-75
2023/04/19 06:51:54;;;;;;;7.47;3.35;;;13.60;90.80;;;;;;5035297;28;21282;-76
2023/04/19 06:54:21;;;;;;;6.03;3.47;;;13.70;90.30;;;;;;5018955;28;20368;-77
2023/04/19 06:56:50;;;;;;;7.05;3.40;;;13.80;89.60;;;;;;5017042;28;20018;-77
2023/04/19 06:59:18;;;;;;;8.23;3.40;;;13.80;88.70;;;;;;5031806;28;20041;-75
2023/04/19 07:01:44;;;;;;;5.75;3.08;;;14.00;87.50;;;;;;5032086;28;20056;-75
2023/04/19 07:04:11;;;;;;;6.15;2.97;;;14.00;86.70;;;;;;5030614;28;20076;-77
2023/04/19 07:06:37;;;;;;;6.25;2.90;;;14.00;85.80;;;;;;5032684;28;20476;-76
2023/04/19 07:09:04;;;;;;;7.28;3.22;;;14.10;85.50;;;;;;5035302;28;20017;-76
2023/04/19 07:11:30;;;;;;;6.85;2.88;;;14.10;84.60;;;;;;5025746;28;20021;-75
2023/04/19 07:13:56;;;;;;;7.65;3.95;;;14.20;84.20;;;;;;5041880;28;20033;-76
2023/04/19 07:16:26;;;;;;;7.88;2.65;;;14.30;83.30;;;;;;5042268;28;20119;-76
2023/04/19 07:18:51;;;;;;;6.93;2.85;;;14.40;82.30;;;;;;5042398;28;20041;-75
2023/04/19 07:21:18;;;;;;;4.18;2.45;;;14.40;81.70;;;;;;5026142;28;20036;-77
2023/04/19 07:23:44;;;;;;;4.15;2.25;;;14.50;81.10;;;;;;5038880;28;20056;-77
2023/04/19 07:26:09;;;;;;;6.72;3.38;;;14.50;79.20;;;;;;5043982;28;20025;-76
2023/04/19 07:28:35;;;;;;;4.65;2.67;;;14.50;81.20;;;;;;5031364;28;20032;-76
2023/04/19 07:31:01;;;;;;;7.63;3.28;;;14.50;78.90;;;;;;5007699;28;20493;-76
2023/04/19 07:33:27;;;;;;;5.88;2.55;;;14.40;81.00;;;;;;5027504;28;20045;-77
2023/04/19 07:35:53;;;;;;;5.63;2.22;;;14.40;79.20;;;;;;5029634;28;20087;-78
2023/04/19 07:38:19;;;;;;;6.47;3.30;;;14.40;83.30;;;;;;5026519;28;20045;-77
2023/04/19 07:40:45;;;;;;;5.53;2.70;;;14.40;80.50;;;;;;5026438;28;20391;-76
2023/04/19 07:43:10;;;;;;;5.13;3.17;;;14.30;79.20;;;;;;5035788;28;20153;-77
2023/04/19 07:45:36;;;;;;;5.47;2.58;;;14.30;78.90;;;;;;5032102;28;20029;-75
2023/04/19 07:48:02;;;;;;;4.85;2.70;;;14.30;82.10;;;;;;5024884;28;20029;-77
2023/04/19 07:50:28;;;;;;;6.78;2.53;;;14.20;83.60;;;;;;5032310;28;20026;-77
2023/04/19 07:52:56;;;;;;;5.57;2.88;;;14.30;81.50;;;;;;5029402;28;20057;-76
2023/04/19 07:55:22;;;;;;;7.32;2.55;;;14.30;80.80;;;;;;5025433;28;20048;-75
2023/04/19 07:57:48;;;;;;;4.85;2.22;;;14.30;80.10;;;;;;5026134;28;20037;-76
2023/04/19 08:00:15;;;;;;;4.53;2.30;;;14.40;83.30;;;;;;5026435;28;20141;-76
2023/04/19 08:02:45;;;;;;;5.53;2.33;;;14.50;84.30;;;;;;5024802;28;20076;-77
2023/04/19 08:05:12;;;;;;;5.88;2.13;;;14.60;77.00;;;;;;5029580;28;20067;-75
2023/04/19 08:07:38;;;;;;;6.93;2.30;;;14.50;75.90;;;;;;5028520;28;20024;-77
2023/04/19 08:10:05;;;;;;;4.63;2.05;;;14.60;77.40;;;;;;5026627;28;20022;-77
2023/04/19 08:12:31;;;;;;;6.22;2.45;;;14.60;79.90;;;;;;5027740;28;20555;-74
2023/04/19 08:14:57;;;;;;;4.97;2.20;;;14.70;76.30;;;;;;5029809;28;20093;-77
2023/04/19 08:17:23;;;;;;;4.35;2.17;;;14.80;81.50;;;;;;5027412;28;20044;-76
2023/04/19 08:19:49;;;;;;;4.25;2.17;;;14.80;77.30;;;;;;5025134;28;20029;-75
2023/04/19 08:22:19;;;;;;;3.85;1.98;;;15.00;82.60;;;;;;5030588;28;20088;-75
2023/04/19 08:24:44;;;;;;;4.67;1.70;;;15.10;81.50;;;;;;5012890;28;20026;-76
2023/04/19 08:27:10;;;;;;;3.53;1.80;;;15.20;80.50;;;;;;5025011;28;20040;-77
2023/04/19 08:29:37;;;;;;;5.07;1.77;;;15.20;80.80;;;;;;5028872;28;20029;-77
2023/04/19 08:32:04;;;;;;;4.28;1.95;;;15.30;79.60;;;;;;5023401;28;20017;-78
2023/04/19 08:34:30;;;;;;;4.00;2.00;;;15.40;74.60;;;;;;5007543;28;20106;-77
2023/04/19 08:36:56;;;;;;;3.90;1.40;;;15.50;76.10;;;;;;5029011;28;20021;-76
2023/04/19 08:39:22;;;;;;;5.30;1.80;;;15.60;75.50;;;;;;5030973;28;20045;-77
2023/04/19 08:41:48;;;;;;;6.50;1.88;;;15.60;79.00;;;;;;5028931;28;20032;-76
2023/04/19 08:44:16;;;;;;;3.72;1.70;;;15.60;73.80;;;;;;5029532;28;20031;-76
2023/04/19 08:46:42;;;;;;;4.20;2.03;;;15.60;71.50;;;;;;5010386;28;20034;-77
2023/04/19 08:49:09;;;;;;;3.75;1.48;;;15.70;80.20;;;;;;5019533;28;20093;-77
2023/04/19 08:51:38;;;;;;;4.45;1.48;;;15.70;81.50;;;;;;5034668;28;20030;-75
2023/04/19 08:54:06;;;;;;;3.63;1.27;;;15.70;74.20;;;;;;5031652;28;20040;-75
2023/04/19 08:56:32;;;;;;;3.10;1.20;;;15.80;76.70;;;;;;5034162;28;20033;-76
2023/04/19 08:58:58;;;;;;;2.65;1.38;;;15.90;71.80;;;;;;5034184;28;20044;-77
2023/04/19 09:01:23;;;;;;;5.07;1.20;;;16.00;75.00;;;;;;5021175;28;20108;-75
2023/04/19 09:03:49;;;;;;;2.20;1.17;;;15.90;76.20;;;;;;5030821;28;20492;-75
2023/04/19 09:06:15;;;;;;;2.92;1.55;;;15.70;72.20;;;;;;5033418;28;20095;-74
2023/04/19 09:08:41;;;;;;;2.25;1.00;;;15.60;70.90;;;;;;5035741;28;20037;-75
2023/04/19 09:11:08;;;;;;;4.53;1.45;;;15.50;75.70;;;;;;5037877;28;20027;-76
2023/04/19 09:13:39;;;;;;;3.33;1.27;;;15.60;79.10;;;;;;5013328;28;20464;-75
2023/04/19 09:16:06;;;;;;;4.25;1.30;;;15.60;73.30;;;;;;5038347;28;20056;-76
2023/04/19 09:18:32;;;;;;;2.22;1.20;;;15.70;78.00;;;;;;5040552;28;20029;-77
2023/04/19 09:20:59;;;;;;;3.03;1.38;;;15.90;78.30;;;;;;5034642;28;20017;-74
2023/04/19 09:23:27;;;;;;;2.63;1.10;;;16.00;78.60;;;;;;5011139;28;20399;-75
2023/04/19 09:26:01;;;;;;;2.80;1.20;;;16.20;79.50;;;;;;5033244;28;20013;-78
2023/04/19 09:28:28;;;;;;;3.92;1.20;;;16.40;77.60;;;;;;5028434;28;20078;-76
2023/04/19 09:30:55;;;;;;;3.97;1.20;;;16.50;78.80;;;;;;5029751;28;20026;-76
2023/04/19 09:33:40;;;;;;;3.80;1.50;;;16.60;79.50;;;;;;5029697;28;20025;-76
2023/04/19 09:36:06;;;;;;;2.63;0.90;;;16.50;81.30;;;;;;5025262;28;20387;-76
2023/04/19 09:38:51;;;;;;;4.30;1.40;;;16.60;79.80;;;;;;5014116;28;20056;-78
2023/04/19 09:41:18;;;;;;;2.28;1.13;;;16.70;79.50;;;;;;5011787;28;20033;-74
2023/04/19 09:43:44;;;;;;;2.60;1.02;;;16.90;80.30;;;;;;5029500;28;20031;-76
2023/04/19 09:46:33;;;;;;;3.72;1.05;;;17.10;81.00;;;;;;5041042;28;20108;-77
2023/04/19 09:49:18;;;;;;;2.90;1.13;;;17.30;81.30;;;;;;5027142;28;20404;-73
2023/04/19 09:51:49;;;;;;;3.50;1.27;;;17.30;78.80;;;;;;5024722;28;20022;-75
2023/04/19 09:54:15;;;;;;;;;;;17.30;79.90;;;;;;5024819;28;20029;-76
2023/04/19 09:56:41;;;;;;;2.17;1.00;;;17.40;80.10;;;;;;5029109;28;19915;-74
2023/04/19 09:59:08;;;;;;;1.42;0.75;;;17.40;80.10;;;;;;5026526;28;20030;-75
2023/04/19 10:01:35;;;;;;;2.65;1.30;;;17.60;81.50;;;;;;5029854;28;20026;-76
2023/04/19 10:04:04;;;;;;;1.85;0.80;;;17.70;79.30;;;;;;5025007;28;20050;-76
2023/04/19 10:06:31;;;;;;;3.35;1.27;;;17.70;80.40;;;;;;5029087;28;20025;-77
2023/04/19 10:09:00;;;;;;;4.35;1.60;;;17.80;81.90;;;;;;5028994;28;20021;-76
2023/04/19 10:11:37;;;;;;;4.53;1.40;;;18.00;80.70;;;;;;5034911;28;20029;-79
2023/04/19 10:14:09;;;;;;;3.55;1.50;;;17.90;79.60;;;;;;5043272;28;20314;-79
2023/04/19 10:16:39;;;;;;;2.58;0.95;;;17.90;82.30;;;;;;5042158;28;20006;-76
2023/04/19 10:19:09;;;;;;;3.22;0.93;;;18.00;81.90;;;;;;5028493;28;20048;-78
2023/04/19 10:21:47;;;;;;;1.80;0.98;;;18.20;82.90;;;;;;5030521;28;20096;-79
2023/04/19 10:24:15;;;;;;;5.40;1.10;;;18.20;73.80;;;;;;5020414;28;20021;-78
2023/04/19 10:27:02;;;;;;;2.00;0.80;;;18.20;79.50;;;;;;5031790;28;20021;-80
2023/04/19 10:29:53;;;;;;;3.90;1.27;;;18.40;87.30;;;;;;5028967;28;20117;-80
2023/04/19 10:32:19;;;;;;;3.70;1.15;;;18.60;79.10;;;;;;5018781;28;20034;-76
2023/04/19 10:34:45;;;;;;;3.13;1.15;;;18.50;78.90;;;;;;5031340;28;20502;-80
2023/04/19 10:37:16;;;;;;;3.95;1.50;;;18.40;78.10;;;;;;5005601;28;20635;-78
2023/04/19 10:39:43;;;;;;;;;;;18.40;79.70;;;;;;5026913;28;20095;-78
2023/04/19 10:42:09;;;;;;;2.25;1.10;;;18.40;83.10;;;;;;5032403;28;20405;-78
2023/04/19 10:44:35;;;;;;;4.82;1.35;;;18.40;83.00;;;;;;5032599;28;20022;-77
2023/04/19 10:47:00;;;;;;;3.08;1.20;;;18.50;83.60;;;;;;5032423;28;20029;-77
2023/04/19 10:49:30;;;;;;;3.85;1.33;;;18.70;81.60;;;;;;5028666;28;20080;-79
2023/04/19 10:51:58;;;;;;;3.47;1.77;;;18.70;83.50;;;;;;5030401;28;20029;-78
2023/04/19 10:54:33;;;;;;;3.03;1.55;;;18.70;79.50;;;;;;5031401;28;20028;-77
2023/04/19 10:57:03;;;;;;;2.28;1.08;;;18.70;74.10;;;;;;5032695;28;20018;-77
2023/04/19 10:59:34;;;;;;;2.58;1.20;;;18.80;84.10;;;;;;5032855;28;20040;-81
2023/04/19 11:02:02;;;;;;;3.83;1.50;;;19.00;84.20;;;;;;5030529;28;20033;-74
2023/04/19 11:04:31;;;;;;;5.05;1.70;;;19.20;80.20;;;;;;5020009;28;20030;-79
2023/04/19 11:07:06;;;;;;;2.17;1.40;;;19.10;76.70;;;;;;5030057;28;20029;-78
2023/04/19 11:09:43;;;;;;;3.60;1.52;;;19.00;78.40;;;;;;5029383;28;20036;-79
2023/04/19 11:12:13;;;;;;;3.55;1.20;;;19.10;81.80;;;;;;5028123;28;20100;-80
2023/04/19 11:14:41;;;;;;;3.95;1.52;;;19.20;76.80;;;;;;5029632;28;20510;-80
2023/04/19 11:17:35;;;;;;;3.67;1.20;;;19.10;76.50;;;;;;5030801;28;20033;-77
2023/04/19 11:20:07;;;;;;;4.53;1.48;;;19.20;80.70;;;;;;5027126;28;20140;-79
2023/04/19 11:22:45;;;;;;;5.38;1.38;;;19.40;80.20;;;;;;5028676;28;20029;-77
2023/04/19 11:25:16;;;;;;;3.20;1.60;;;19.30;72.30;;;;;;5018067;28;20030;-78
2023/04/19 11:27:43;;;;;;;2.65;1.35;;;19.30;74.50;;;;;;5028808;28;20025;-79
2023/04/19 11:30:12;;;;;;;3.35;1.20;;;19.40;72.80;;;;;;5030261;28;20064;-80
2023/04/19 11:32:44;;;;;;;5.70;1.60;;;19.50;74.80;;;;;;5030121;28;20013;-78
2023/04/19 11:35:10;;;;;;;3.85;1.50;;;19.80;75.30;;;;;;5032065;28;20028;-78
2023/04/19 11:37:37;;;;;;;2.53;1.23;;;19.80;69.70;;;;;;5030646;28;20117;-77
2023/04/19 11:40:06;;;;;;;3.10;1.38;;;19.80;71.50;;;;;;5030084;28;20119;-79
2023/04/19 11:42:32;;;;;;;4.60;2.05;;;19.80;77.10;;;;;;5029672;28;20037;-77
2023/04/19 11:44:58;;;;;;;2.92;1.45;;;19.80;72.80;;;;;;5013007;28;20383;-79
2023/04/19 11:47:25;;;;;;;4.05;1.85;;;19.80;75.00;;;;;;5028724;28;20049;-77
2023/04/19 11:49:53;;;;;;;4.68;1.50;;;19.90;80.70;;;;;;5030791;28;20160;-78
2023/04/19 11:52:25;;;;;;;5.47;1.63;;;20.00;80.90;;;;;;5029345;28;20018;-78
2023/04/19 11:54:52;;;;;;;5.22;1.92;;;20.00;81.00;;;;;;5012420;28;20021;-78
2023/04/19 11:57:31;;;;;;;3.72;1.45;;;20.10;79.50;;;;;;5000115;28;20017;-84
2023/04/19 12:00:10;;;;;;;4.88;1.40;;;20.10;77.60;;;;;;5030413;28;20094;-78
2023/04/19 12:02:38;;;;;;;4.38;1.58;;;20.20;73.10;;;;;;5024025;28;20388;-79
2023/04/19 12:05:08;;;;;;;5.38;2.00;;;20.20;75.60;;;;;;5028639;28;20033;-80
2023/04/19 12:07:35;;;;;;;3.78;1.73;;;20.30;73.00;;;;;;5029225;28;20079;-79
2023/04/19 12:10:09;;;;;;;5.03;1.42;;;20.40;72.30;;;;;;5035016;28;20087;-77
2023/04/19 12:12:34;;;;;;;4.03;1.40;;;20.40;72.80;;;;;;5039791;28;20028;-77
2023/04/19 12:15:00;;;;;;;3.97;1.73;;;20.40;72.00;;;;;;5035896;28;20029;-77
2023/04/19 12:17:26;;;;;;;3.42;1.52;;;20.50;70.90;;;;;;5038200;28;20021;-79
2023/04/19 12:19:51;;;;;;;5.10;1.40;;;20.50;83.30;;;;;;5035648;28;20028;-77
2023/04/19 12:22:19;;;;;;;3.55;1.45;;;;;;;;;;5014486;28;20045;-81
2023/04/19 12:24:46;;;;;;;3.15;1.55;;;;;;;;;;5038250;28;20028;-80
2023/04/19 12:27:12;;;;;;;4.45;1.50;;;;;;;;;;5018722;28;20040;-78
2023/04/19 12:29:38;;;;;;;3.28;1.60;;;;;;;;;;5039161;28;20151;-79
2023/04/19 12:32:05;;;;;;;4.88;1.50;;;;;;;;;;5036019;28;20136;-78
2023/04/19 12:34:32;;;;;;;5.60;1.60;;;;;;;;;;5034384;28;20029;-78
2023/04/19 12:36:58;;;;;;;4.55;1.77;;;;;;;;;;5041682;28;20021;-78
2023/04/19 12:39:24;;;;;;;3.90;1.65;;;;;;;;;;5037095;28;20044;-78
2023/04/19 12:41:50;;;;;;;4.40;2.35;;;;;;;;;;5038756;28;20121;-80
2023/04/19 12:44:19;;;;;;;2.65;1.55;;;;;;;;;;5037961;28;20025;-78
2023/04/19 12:46:46;;;;;;;2.92;1.75;;;;;;;;;;5021882;28;20055;-78
2023/04/19 12:49:12;;;;;;;4.85;2.10;;;;;;;;;;5038336;28;20033;-77